Time,TemperatureF,DewpointF,PressureIn,WindDirection,WindDirectionDegrees,WindSpeedMPH,WindSpeedGustMPH,Humidity,HourlyPrecipIn,Conditions,Clouds,dailyrainin,SolarRadiationWatts/m^2,SoftwareType,DateUTC
2013-03-01 00:00:00,44.0,23.0,-100.00,WNW,293,6.0,12.0,44,0.00,,,0.00,0.000000,,2013-03-01 08:00:00,
2013-03-01 00:22:00,44.0,23.0,-100.00,WNW,293,6.0,12.0,44,0.00,,,0.00,0.000000,,2013-03-01 08:22:00,
2013-03-01 00:32:00,44.0,23.0,-100.00,WNW,293,6.0,12.0,44,0.00,,,0.00,0.000000,,2013-03-01 08:32:00,
2013-03-01 00:43:00,44.0,23.0,-100.00,WNW,293,6.0,12.0,44,0.00,,,0.00,0.000000,,2013-03-01 08:43:00,
2013-03-01 00:53:00,44.0,23.0,-100.00,WNW,293,6.0,12.0,44,0.00,,,0.00,0.000000,,2013-03-01 08:53:00,
2013-03-01 01:00:00,42.0,23.0,-100.00,WNW,293,8.0,12.0,46,0.00,,,0.00,0.000000,,2013-03-01 09:00:00,
2013-03-01 01:22:00,42.0,23.0,-100.00,WNW,293,8.0,12.0,46,0.00,,,0.00,0.000000,,2013-03-01 09:22:00,
2013-03-01 01:32:00,42.0,23.0,-100.00,WNW,293,8.0,12.0,46,0.00,,,0.00,0.000000,,2013-03-01 09:32:00,
2013-03-01 01:42:00,42.0,23.0,-100.00,WNW,293,8.0,12.0,46,0.00,,,0.00,0.000000,,2013-03-01 09:42:00,
2013-03-01 01:52:00,42.0,23.0,-100.00,WNW,293,8.0,12.0,46,0.00,,,0.00,0.000000,,2013-03-01 09:52:00,
2013-03-01 02:00:00,42.0,25.0,-100.00,WNW,289,9.0,12.0,50,0.00,,,0.00,0.000000,,2013-03-01 10:00:00,
2013-03-01 02:32:00,42.0,25.0,-100.00,WNW,289,9.0,12.0,50,0.00,,,0.00,0.000000,,2013-03-01 10:32:00,
2013-03-01 02:42:00,42.0,25.0,-100.00,WNW,289,9.0,12.0,50,0.00,,,0.00,0.000000,,2013-03-01 10:42:00,
2013-03-01 02:52:00,42.0,25.0,-100.00,WNW,289,9.0,12.0,50,0.00,,,0.00,0.000000,,2013-03-01 10:52:00,
2013-03-01 03:00:00,42.0,25.0,-100.00,WNW,292,9.0,12.0,50,0.00,,,0.00,0.000000,,2013-03-01 11:00:00,
2013-03-01 03:32:00,42.0,25.0,-100.00,WNW,292,9.0,12.0,50,0.00,,,0.00,0.000000,,2013-03-01 11:32:00,
2013-03-01 03:42:00,42.0,25.0,-100.00,WNW,292,9.0,12.0,50,0.00,,,0.00,0.000000,,2013-03-01 11:42:00,
2013-03-01 03:52:00,42.0,25.0,-100.00,WNW,292,9.0,12.0,50,0.00,,,0.00,0.000000,,2013-03-01 11:52:00,
2013-03-01 04:00:00,40.0,23.0,-100.00,WNW,292,10.0,13.0,51,0.00,,,0.00,0.000000,,2013-03-01 12:00:00,
2013-03-01 04:32:00,40.0,23.0,-100.00,WNW,292,10.0,13.0,51,0.00,,,0.00,0.000000,,2013-03-01 12:32:00,
2013-03-01 04:42:00,40.0,23.0,-100.00,WNW,292,10.0,13.0,51,0.00,,,0.00,0.000000,,2013-03-01 12:42:00,
2013-03-01 04:52:00,40.0,23.0,-100.00,WNW,292,10.0,13.0,51,0.00,,,0.00,0.000000,,2013-03-01 12:52:00,
2013-03-01 05:00:00,40.0,23.0,-100.00,WNW,288,6.0,13.0,50,0.00,,,0.00,0.000000,,2013-03-01 13:00:00,
2013-03-01 05:32:00,40.0,23.0,-100.00,WNW,288,6.0,13.0,50,0.00,,,0.00,0.000000,,2013-03-01 13:32:00,
2013-03-01 05:42:00,40.0,23.0,-100.00,WNW,288,6.0,13.0,50,0.00,,,0.00,0.000000,,2013-03-01 13:42:00,
2013-03-01 05:52:00,40.0,23.0,-100.00,WNW,288,6.0,13.0,50,0.00,,,0.00,0.000000,,2013-03-01 13:52:00,
2013-03-01 06:00:00,40.0,23.0,-100.00,WNW,287,8.0,11.0,50,0.00,,,0.00,0.000000,,2013-03-01 14:00:00,
2013-03-01 06:32:00,40.0,23.0,-100.00,WNW,287,8.0,11.0,50,0.00,,,0.00,0.000000,,2013-03-01 14:32:00,
2013-03-01 06:42:00,40.0,23.0,-100.00,WNW,287,8.0,11.0,50,0.00,,,0.00,0.000000,,2013-03-01 14:42:00,
2013-03-01 06:52:00,40.0,23.0,-100.00,WNW,287,8.0,11.0,50,0.00,,,0.00,0.000000,,2013-03-01 14:52:00,
2013-03-01 07:00:00,40.0,24.0,-100.00,WNW,296,1.0,10.0,52,0.00,,,0.00,0.000000,,2013-03-01 15:00:00,
2013-03-01 07:21:00,40.0,24.0,-100.00,WNW,296,1.0,10.0,52,0.00,,,0.00,0.000000,,2013-03-01 15:21:00,
2013-03-01 07:32:00,40.0,24.0,-100.00,WNW,296,1.0,10.0,52,0.00,,,0.00,0.000000,,2013-03-01 15:32:00,
2013-03-01 07:42:00,40.0,24.0,-100.00,WNW,296,1.0,10.0,52,0.00,,,0.00,0.000000,,2013-03-01 15:42:00,
2013-03-01 07:52:00,40.0,24.0,-100.00,WNW,296,1.0,10.0,52,0.00,,,0.00,0.000000,,2013-03-01 15:52:00,
2013-03-01 08:32:00,43.0,22.0,-100.00,West,261,0.0,9.0,43,0.00,,,0.00,29.000000,,2013-03-01 16:32:00,
2013-03-01 08:42:00,43.0,22.0,-100.00,West,261,0.0,9.0,43,0.00,,,0.00,29.000000,,2013-03-01 16:42:00,
2013-03-01 08:52:00,43.0,22.0,-100.00,West,261,0.0,9.0,43,0.00,,,0.00,29.000000,,2013-03-01 16:52:00,
2013-03-01 09:00:00,54.0,27.0,-100.00,ESE,114,1.0,4.0,35,0.00,,,0.00,257.000000,,2013-03-01 17:00:00,
2013-03-01 09:32:00,54.0,27.0,-100.00,ESE,114,1.0,4.0,35,0.00,,,0.00,257.000000,,2013-03-01 17:32:00,
2013-03-01 09:42:00,54.0,27.0,-100.00,ESE,114,1.0,4.0,35,0.00,,,0.00,257.000000,,2013-03-01 17:42:00,
2013-03-01 09:52:00,54.0,27.0,-100.00,ESE,114,1.0,4.0,35,0.00,,,0.00,257.000000,,2013-03-01 17:52:00,
2013-03-01 10:00:00,59.0,28.0,-100.00,ESE,105,0.0,5.0,30,0.00,,,0.00,511.000000,,2013-03-01 18:00:00,
2013-03-01 10:32:00,59.0,28.0,-100.00,ESE,105,0.0,5.0,30,0.00,,,0.00,511.000000,,2013-03-01 18:32:00,
2013-03-01 10:42:00,59.0,28.0,-100.00,ESE,105,0.0,5.0,30,0.00,,,0.00,511.000000,,2013-03-01 18:42:00,
2013-03-01 10:52:00,59.0,28.0,-100.00,ESE,105,0.0,5.0,30,0.00,,,0.00,511.000000,,2013-03-01 18:52:00,
2013-03-01 11:00:00,64.0,27.0,-100.00,ESE,121,2.0,7.0,25,0.00,,,0.00,698.000000,,2013-03-01 19:00:00,
2013-03-01 11:21:00,64.0,27.0,-100.00,ESE,121,2.0,7.0,25,0.00,,,0.00,698.000000,,2013-03-01 19:21:00,
2013-03-01 11:32:00,64.0,27.0,-100.00,ESE,121,2.0,7.0,25,0.00,,,0.00,698.000000,,2013-03-01 19:32:00,
2013-03-01 11:42:00,64.0,27.0,-100.00,ESE,121,2.0,7.0,25,0.00,,,0.00,698.000000,,2013-03-01 19:42:00,
2013-03-01 11:52:00,64.0,27.0,-100.00,ESE,121,2.0,7.0,25,0.00,,,0.00,698.000000,,2013-03-01 19:52:00,
2013-03-01 12:22:00,68.0,20.0,-100.00,ESE,122,3.0,8.0,16,0.00,,,0.00,964.000000,,2013-03-01 20:22:00,
2013-03-01 12:32:00,68.0,20.0,-100.00,ESE,122,3.0,8.0,16,0.00,,,0.00,964.000000,,2013-03-01 20:32:00,
2013-03-01 13:00:00,73.0,23.0,-100.00,ESE,106,4.0,10.0,15,0.00,,,0.00,1067.000000,,2013-03-01 21:00:00,
2013-03-01 13:21:00,73.0,23.0,-100.00,ESE,106,4.0,10.0,15,0.00,,,0.00,1067.000000,,2013-03-01 21:21:00,
2013-03-01 13:32:00,73.0,23.0,-100.00,ESE,106,4.0,10.0,15,0.00,,,0.00,1067.000000,,2013-03-01 21:32:00,
2013-03-01 13:42:00,73.0,23.0,-100.00,ESE,106,4.0,10.0,15,0.00,,,0.00,1067.000000,,2013-03-01 21:42:00,
2013-03-01 13:52:00,73.0,23.0,-100.00,ESE,106,4.0,10.0,15,0.00,,,0.00,1067.000000,,2013-03-01 21:52:00,
2013-03-01 14:00:00,74.0,22.0,-100.00,ESE,116,4.0,12.0,14,0.00,,,0.00,1078.000000,,2013-03-01 22:00:00,
2013-03-01 14:32:00,74.0,22.0,-100.00,ESE,116,4.0,12.0,14,0.00,,,0.00,1078.000000,,2013-03-01 22:32:00,
2013-03-01 14:42:00,74.0,22.0,-100.00,ESE,116,4.0,12.0,14,0.00,,,0.00,1078.000000,,2013-03-01 22:42:00,
2013-03-01 14:52:00,74.0,22.0,-100.00,ESE,116,4.0,12.0,14,0.00,,,0.00,1078.000000,,2013-03-01 22:52:00,
2013-03-01 15:00:00,75.0,23.0,-100.00,ESE,103,8.0,13.0,14,0.00,,,0.00,999.000000,,2013-03-01 23:00:00,
2013-03-01 15:32:00,75.0,23.0,-100.00,ESE,103,8.0,13.0,14,0.00,,,0.00,999.000000,,2013-03-01 23:32:00,
2013-03-01 15:42:00,75.0,23.0,-100.00,ESE,103,8.0,13.0,14,0.00,,,0.00,999.000000,,2013-03-01 23:42:00,
2013-03-01 15:52:00,75.0,23.0,-100.00,ESE,103,8.0,13.0,14,0.00,,,0.00,999.000000,,2013-03-01 23:52:00,
2013-03-01 16:00:00,73.0,19.0,-100.00,SE,134,5.0,14.0,13,0.00,,,0.00,842.000000,,2013-03-02 00:00:00,
2013-03-01 16:32:00,73.0,19.0,-100.00,SE,134,5.0,14.0,13,0.00,,,0.00,842.000000,,2013-03-02 00:32:00,
2013-03-01 16:42:00,73.0,19.0,-100.00,SE,134,5.0,14.0,13,0.00,,,0.00,842.000000,,2013-03-02 00:42:00,
2013-03-01 16:52:00,73.0,19.0,-100.00,SE,134,5.0,14.0,13,0.00,,,0.00,842.000000,,2013-03-02 00:52:00,
2013-03-01 17:00:00,72.0,20.0,-100.00,ESE,104,6.0,12.0,14,0.00,,,0.00,616.000000,,2013-03-02 01:00:00,
2013-03-01 17:32:00,72.0,20.0,-100.00,ESE,104,6.0,12.0,14,0.00,,,0.00,616.000000,,2013-03-02 01:32:00,
2013-03-01 17:42:00,72.0,20.0,-100.00,ESE,104,6.0,12.0,14,0.00,,,0.00,616.000000,,2013-03-02 01:42:00,
2013-03-01 17:52:00,72.0,20.0,-100.00,ESE,104,6.0,12.0,14,0.00,,,0.00,616.000000,,2013-03-02 01:52:00,
2013-03-01 18:00:00,69.0,21.0,-100.00,ESE,120,0.0,11.0,16,0.00,,,0.00,335.000000,,2013-03-02 02:00:00,
2013-03-01 18:32:00,69.0,21.0,-100.00,ESE,120,0.0,11.0,16,0.00,,,0.00,335.000000,,2013-03-02 02:32:00,
2013-03-01 18:42:00,69.0,21.0,-100.00,ESE,120,0.0,11.0,16,0.00,,,0.00,335.000000,,2013-03-02 02:42:00,
2013-03-01 18:52:00,69.0,21.0,-100.00,ESE,120,0.0,11.0,16,0.00,,,0.00,335.000000,,2013-03-02 02:52:00,
2013-03-01 19:00:00,56.0,23.0,-100.00,WNW,293,10.0,13.0,28,-99.99,,,0.00,13.000000,,2013-03-02 03:00:00,
2013-03-01 19:32:00,56.0,23.0,-100.00,WNW,293,10.0,13.0,28,-99.99,,,0.00,13.000000,,2013-03-02 03:32:00,
2013-03-01 19:42:00,56.0,23.0,-100.00,WNW,293,10.0,13.0,28,-99.99,,,0.00,13.000000,,2013-03-02 03:42:00,
2013-03-01 19:52:00,56.0,23.0,-100.00,WNW,293,10.0,13.0,28,-99.99,,,0.00,13.000000,,2013-03-02 03:52:00,
2013-03-01 20:00:00,52.0,21.0,-100.00,WNW,294,11.0,14.0,29,0.00,,,0.00,0.000000,,2013-03-02 04:00:00,
2013-03-01 20:32:00,52.0,21.0,-100.00,WNW,294,11.0,14.0,29,0.00,,,0.00,0.000000,,2013-03-02 04:32:00,
2013-03-01 20:42:00,52.0,21.0,-100.00,WNW,294,11.0,14.0,29,0.00,,,0.00,0.000000,,2013-03-02 04:42:00,
2013-03-01 20:52:00,52.0,21.0,-100.00,WNW,294,11.0,14.0,29,0.00,,,0.00,0.000000,,2013-03-02 04:52:00,
2013-03-01 21:00:00,50.0,20.0,-100.00,WNW,292,11.0,16.0,30,0.00,,,0.00,0.000000,,2013-03-02 05:00:00,
2013-03-01 21:23:00,50.0,20.0,-100.00,WNW,292,11.0,16.0,30,0.00,,,0.00,0.000000,,2013-03-02 05:23:00,
2013-03-01 21:32:00,50.0,20.0,-100.00,WNW,292,11.0,16.0,30,0.00,,,0.00,0.000000,,2013-03-02 05:32:00,
2013-03-01 21:42:00,50.0,20.0,-100.00,WNW,292,11.0,16.0,30,0.00,,,0.00,0.000000,,2013-03-02 05:42:00,
2013-03-01 21:52:00,50.0,20.0,-100.00,WNW,292,11.0,16.0,30,0.00,,,0.00,0.000000,,2013-03-02 05:52:00,
2013-03-01 22:00:00,51.0,20.0,-100.00,WNW,293,11.0,15.0,29,0.00,,,0.00,0.000000,,2013-03-02 06:00:00,
2013-03-01 22:32:00,51.0,20.0,-100.00,WNW,293,11.0,15.0,29,0.00,,,0.00,0.000000,,2013-03-02 06:32:00,
2013-03-01 22:42:00,51.0,20.0,-100.00,WNW,293,11.0,15.0,29,0.00,,,0.00,0.000000,,2013-03-02 06:42:00,
2013-03-01 22:52:00,51.0,20.0,-100.00,WNW,293,11.0,15.0,29,0.00,,,0.00,0.000000,,2013-03-02 06:52:00,
2013-03-01 23:00:00,51.0,20.0,-100.00,WNW,291,10.0,15.0,29,0.00,,,0.00,0.000000,,2013-03-02 07:00:00,
2013-03-01 23:22:00,51.0,20.0,-100.00,WNW,291,10.0,15.0,29,0.00,,,0.00,0.000000,,2013-03-02 07:22:00,
2013-03-01 23:32:00,51.0,20.0,-100.00,WNW,291,10.0,15.0,29,0.00,,,0.00,0.000000,,2013-03-02 07:32:00,
2013-03-01 23:42:00,51.0,20.0,-100.00,WNW,291,10.0,15.0,29,0.00,,,0.00,0.000000,,2013-03-02 07:42:00,
2013-03-01 23:52:00,51.0,20.0,-100.00,WNW,291,10.0,15.0,29,0.00,,,0.00,0.000000,,2013-03-02 07:52:00,